createdAt,value
2018-12-07T00:00:19.163Z,19.14
2018-12-07T00:00:59.880Z,19.13
2018-12-07T00:01:40.668Z,19.13
2018-12-07T00:02:21.495Z,19.13
2018-12-07T00:03:02.252Z,19.06
2018-12-07T00:03:43.017Z,19.11
2018-12-07T00:04:23.762Z,19.06
2018-12-07T00:05:04.562Z,19.04
2018-12-07T00:05:45.341Z,19.11
2018-12-07T00:06:26.055Z,19.13
2018-12-07T00:07:06.809Z,19.11
2018-12-07T00:07:47.528Z,19.04
2018-12-07T00:08:28.399Z,19.11
2018-12-07T00:09:09.242Z,19.11
2018-12-07T00:09:50.049Z,19.11
2018-12-07T00:10:32.346Z,19.13
2018-12-07T00:11:13.042Z,19.13
2018-12-07T00:11:53.866Z,19.08
2018-12-07T00:12:34.605Z,19
2018-12-07T00:13:15.324Z,19.1
2018-12-07T00:13:56.073Z,19.11
2018-12-07T00:14:36.867Z,19.11
2018-12-07T00:15:17.633Z,19.11
2018-12-07T00:15:58.311Z,19.13
2018-12-07T00:16:39.088Z,19.14
2018-12-07T00:17:19.902Z,19.13
2018-12-07T00:18:00.725Z,19.02
2018-12-07T00:18:41.505Z,19
2018-12-07T00:19:22.205Z,19.11
2018-12-07T00:20:03.024Z,19
2018-12-07T00:20:43.851Z,19.11
2018-12-07T00:21:24.567Z,19.07
2018-12-07T00:22:05.291Z,19.11
2018-12-07T00:22:46.043Z,19.08
2018-12-07T00:23:26.906Z,19.08
2018-12-07T00:24:09.564Z,19.16
2018-12-07T00:24:50.382Z,19.14
2018-12-07T00:25:31.117Z,19.02
2018-12-07T00:26:11.831Z,19.11
2018-12-07T00:26:52.572Z,19.16
2018-12-07T00:27:33.374Z,19.06
2018-12-07T00:28:14.151Z,19.1
2018-12-07T00:28:54.838Z,19.08
2018-12-07T00:29:35.582Z,19.14
2018-12-07T00:30:16.379Z,19.11
2018-12-07T00:30:57.193Z,19.14
2018-12-07T00:31:37.977Z,19.08
2018-12-07T00:32:18.681Z,19.07
2018-12-07T00:32:59.400Z,19.13
2018-12-07T00:33:40.142Z,19.07
2018-12-07T00:34:20.953Z,19.1
2018-12-07T00:35:01.706Z,19.08
2018-12-07T00:35:42.507Z,19.08
2018-12-07T00:36:23.252Z,19.08
2018-12-07T00:37:03.970Z,19.02
2018-12-07T00:37:45.146Z,19.04
2018-12-07T00:38:25.957Z,19.11
2018-12-07T00:39:06.785Z,19.04
2018-12-07T00:39:47.507Z,19.13
2018-12-07T00:40:28.259Z,19.08
2018-12-07T00:41:09.088Z,19.02
2018-12-07T00:41:49.898Z,19.07
2018-12-07T00:42:30.723Z,19.07
2018-12-07T00:43:11.469Z,19.07
2018-12-07T00:43:52.229Z,19.08
2018-12-07T00:44:32.925Z,19.06
2018-12-07T00:45:13.740Z,19.06
2018-12-07T00:45:54.463Z,19.02
2018-12-07T00:46:35.168Z,19.07
2018-12-07T00:47:15.985Z,18.99
2018-12-07T00:47:56.810Z,19.08
2018-12-07T00:48:37.635Z,19.06
2018-12-07T00:49:18.388Z,19.04
2018-12-07T00:50:00.811Z,19
2018-12-07T00:50:41.607Z,19.07
2018-12-07T00:51:22.403Z,19.1
2018-12-07T00:52:03.136Z,19.02
2018-12-07T00:52:43.815Z,19.1
2018-12-07T00:53:26.488Z,19.02
2018-12-07T00:54:07.278Z,19.02
2018-12-07T00:54:48.033Z,19.11
2018-12-07T00:55:28.752Z,19.08
2018-12-07T00:56:09.547Z,19.11
2018-12-07T00:56:50.299Z,19.07
2018-12-07T00:57:31.175Z,19.06
2018-12-07T00:58:11.935Z,19.07
2018-12-07T00:58:52.691Z,19.1
2018-12-07T00:59:33.401Z,19
2018-12-07T01:00:14.158Z,19.13
2018-12-07T01:00:55.002Z,19.13
2018-12-07T01:01:35.876Z,19.08
2018-12-07T01:02:16.607Z,19.13
2018-12-07T01:02:57.295Z,19.13
2018-12-07T01:03:38.081Z,19
2018-12-07T01:04:18.883Z,19.1
2018-12-07T01:04:59.588Z,19.02
2018-12-07T01:05:40.275Z,19.13
2018-12-07T01:06:20.978Z,19.07
2018-12-07T01:07:01.742Z,19.06
2018-12-07T01:07:42.487Z,19.07
2018-12-07T01:08:23.224Z,19.04
2018-12-07T01:09:05.964Z,19.04
2018-12-07T01:09:48.579Z,19.02
2018-12-07T01:10:29.411Z,19.02
2018-12-07T01:11:10.135Z,19.13
2018-12-07T01:11:50.856Z,19.07
2018-12-07T01:12:31.660Z,19.13
2018-12-07T01:13:12.416Z,19.06
2018-12-07T01:13:53.155Z,19.1
2018-12-07T01:14:33.934Z,19.07
2018-12-07T01:15:14.657Z,19.04
2018-12-07T01:15:55.426Z,18.98
2018-12-07T01:16:36.267Z,19.1
2018-12-07T01:17:17.026Z,19.06
2018-12-07T01:17:57.785Z,19
2018-12-07T01:18:38.546Z,19.02
2018-12-07T01:19:19.306Z,18.95
2018-12-07T01:20:00.088Z,18.98
2018-12-07T01:20:40.913Z,19.04
2018-12-07T01:21:21.628Z,19.13
2018-12-07T01:22:02.424Z,19.06
2018-12-07T01:22:43.165Z,19.04
2018-12-07T01:23:23.976Z,19.04
2018-12-07T01:24:04.738Z,19.06
2018-12-07T01:24:45.519Z,19.06
2018-12-07T01:25:26.445Z,19.02
2018-12-07T01:26:07.158Z,19.04
2018-12-07T01:26:47.892Z,19.08
2018-12-07T01:27:28.604Z,19.04
2018-12-07T01:28:09.300Z,19.02
2018-12-07T01:28:50.097Z,19.02
2018-12-07T01:29:30.888Z,19.06
2018-12-07T01:30:11.636Z,18.99
2018-12-07T01:30:52.462Z,19.06
2018-12-07T01:31:33.232Z,19.06
2018-12-07T01:32:14.058Z,19.02
2018-12-07T01:32:54.822Z,19.04
2018-12-07T01:33:35.523Z,19.06
2018-12-07T01:34:16.252Z,19.07
2018-12-07T01:34:57.011Z,18.98
2018-12-07T01:35:37.802Z,19.02
2018-12-07T01:36:18.663Z,19
2018-12-07T01:36:59.470Z,18.99
2018-12-07T01:37:40.186Z,19.06
2018-12-07T01:38:20.982Z,19.06
2018-12-07T01:39:01.716Z,19.08
2018-12-07T01:39:42.412Z,19
2018-12-07T01:40:23.151Z,19.07
2018-12-07T01:41:03.856Z,19.06
2018-12-07T01:41:44.664Z,19.02
2018-12-07T01:42:25.470Z,18.95
2018-12-07T01:43:06.312Z,19.07
2018-12-07T01:43:47.047Z,18.95
2018-12-07T01:44:27.749Z,19.07
2018-12-07T01:45:08.476Z,18.98
2018-12-07T01:45:49.217Z,18.94
2018-12-07T01:46:29.987Z,19.06
2018-12-07T01:47:10.730Z,19.02
2018-12-07T01:47:51.474Z,19.04
2018-12-07T01:48:32.287Z,19.08
2018-12-07T01:49:13.101Z,19.04
2018-12-07T01:49:53.884Z,19.02
2018-12-07T01:50:34.635Z,18.95
2018-12-07T01:51:15.406Z,19
2018-12-07T01:51:56.104Z,18.94
2018-12-07T01:52:36.910Z,19.02
2018-12-07T01:53:17.698Z,19.06
2018-12-07T01:53:58.590Z,19.06
2018-12-07T01:54:39.366Z,19.02
2018-12-07T01:55:20.104Z,19.06
2018-12-07T01:56:00.981Z,19.02
2018-12-07T01:56:41.740Z,19
2018-12-07T01:57:22.453Z,19.04
2018-12-07T01:58:03.183Z,19.02
2018-12-07T01:58:43.888Z,19.04
2018-12-07T01:59:24.715Z,19
2018-12-07T02:00:05.503Z,19
2018-12-07T02:00:46.214Z,19.04
2018-12-07T02:01:26.993Z,18.95
2018-12-07T02:02:07.819Z,19
2018-12-07T02:02:48.647Z,19
2018-12-07T02:03:29.379Z,19
2018-12-07T02:04:10.181Z,19
2018-12-07T02:04:50.982Z,18.95
2018-12-07T02:05:31.692Z,19.06
2018-12-07T02:06:12.411Z,19
2018-12-07T02:06:53.151Z,19
2018-12-07T02:07:35.505Z,18.99
2018-12-07T02:08:16.348Z,18.99
2018-12-07T02:08:57.140Z,18.85
2018-12-07T02:09:37.945Z,18.95
2018-12-07T02:10:18.639Z,18.98
2018-12-07T02:10:59.451Z,18.95
2018-12-07T02:11:40.166Z,19
2018-12-07T02:12:20.980Z,19.02
2018-12-07T02:13:01.772Z,18.98
2018-12-07T02:13:42.457Z,18.99
2018-12-07T02:14:23.270Z,19.07
2018-12-07T02:15:04.042Z,18.95
2018-12-07T02:15:44.830Z,18.99
2018-12-07T02:16:25.583Z,18.99
2018-12-07T02:17:06.275Z,18.99
2018-12-07T02:17:47.001Z,19
2018-12-07T02:18:27.747Z,19.06
2018-12-07T02:19:08.557Z,18.99
2018-12-07T02:19:49.379Z,18.92
2018-12-07T02:20:30.179Z,18.99
2018-12-07T02:21:10.885Z,19
2018-12-07T02:21:51.628Z,19.02
2018-12-07T02:22:32.455Z,18.99
2018-12-07T02:23:13.207Z,18.98
2018-12-07T02:23:53.929Z,19.04
2018-12-07T02:24:34.664Z,19
2018-12-07T02:25:15.410Z,18.92
2018-12-07T02:25:56.219Z,19
2018-12-07T02:26:36.997Z,18.91
2018-12-07T02:27:17.727Z,18.98
2018-12-07T02:28:00.859Z,18.94
2018-12-07T02:28:41.572Z,19.02
2018-12-07T02:29:22.322Z,18.92
2018-12-07T02:30:03.126Z,18.91
2018-12-07T02:30:43.935Z,19.02
2018-12-07T02:31:24.616Z,18.92
2018-12-07T02:32:05.438Z,18.92
2018-12-07T02:32:46.222Z,19.02
2018-12-07T02:33:27.025Z,18.91
2018-12-07T02:34:07.788Z,18.92
2018-12-07T02:34:48.535Z,18.95
2018-12-07T02:35:29.323Z,18.94
2018-12-07T02:36:10.096Z,18.91
2018-12-07T02:36:50.849Z,18.91
2018-12-07T02:37:31.704Z,18.98
2018-12-07T02:38:12.514Z,18.95
2018-12-07T02:38:53.300Z,18.91
2018-12-07T02:39:34.053Z,18.91
2018-12-07T02:40:14.790Z,18.92
2018-12-07T02:40:55.600Z,18.9
2018-12-07T02:41:36.402Z,18.92
2018-12-07T02:42:17.265Z,18.95
2018-12-07T02:42:57.941Z,18.95
2018-12-07T02:43:38.628Z,18.88
2018-12-07T02:44:19.381Z,18.92
2018-12-07T02:45:00.151Z,18.98
2018-12-07T02:45:41.019Z,18.98
2018-12-07T02:46:21.775Z,18.91
2018-12-07T02:47:02.567Z,18.94
2018-12-07T02:47:43.294Z,18.98
2018-12-07T02:48:24.075Z,19.02
2018-12-07T02:49:04.927Z,18.94
2018-12-07T02:49:45.610Z,18.94
2018-12-07T02:50:26.342Z,18.94
2018-12-07T02:51:07.091Z,18.95
2018-12-07T02:51:47.899Z,18.91
2018-12-07T02:52:28.731Z,18.91
2018-12-07T02:53:09.571Z,18.85
2018-12-07T02:53:50.278Z,18.91
2018-12-07T02:54:31.020Z,18.91
2018-12-07T02:55:11.758Z,18.92
2018-12-07T02:55:52.567Z,18.88
2018-12-07T02:56:33.395Z,18.92
2018-12-07T02:57:14.123Z,18.92
2018-12-07T02:57:54.899Z,18.92
2018-12-07T02:58:35.706Z,18.91
2018-12-07T02:59:16.458Z,18.94
2018-12-07T02:59:57.279Z,18.91
2018-12-07T03:00:38.027Z,18.9
2018-12-07T03:01:18.690Z,18.9
2018-12-07T03:01:59.426Z,18.94
2018-12-07T03:02:40.270Z,18.91
2018-12-07T03:03:21.104Z,18.94
2018-12-07T03:04:01.893Z,18.88
2018-12-07T03:04:42.563Z,18.91
2018-12-07T03:05:23.314Z,18.91
2018-12-07T03:06:04.109Z,18.9
2018-12-07T03:06:44.861Z,18.91
2018-12-07T03:07:25.578Z,18.88
2018-12-07T03:08:06.320Z,18.9
2018-12-07T03:08:47.077Z,18.92
2018-12-07T03:09:27.867Z,18.92
2018-12-07T03:10:08.539Z,18.91
2018-12-07T03:10:49.261Z,18.9
2018-12-07T03:11:30.044Z,18.92
2018-12-07T03:12:10.829Z,18.94
2018-12-07T03:12:51.612Z,18.92
2018-12-07T03:13:32.337Z,18.94
2018-12-07T03:14:13.093Z,18.92
2018-12-07T03:14:53.943Z,18.92
2018-12-07T03:15:34.706Z,18.92
2018-12-07T03:16:15.447Z,18.92
2018-12-07T03:16:56.144Z,18.92
2018-12-07T03:17:36.925Z,18.92
2018-12-07T03:18:17.731Z,18.91
2018-12-07T03:19:03.094Z,18.88
2018-12-07T03:19:43.890Z,18.9
2018-12-07T03:20:24.596Z,18.95
2018-12-07T03:21:05.314Z,18.94
2018-12-07T03:21:46.071Z,18.91
2018-12-07T03:22:26.913Z,18.94
2018-12-07T03:23:07.656Z,18.91
2018-12-07T03:23:48.380Z,18.92
2018-12-07T03:24:29.186Z,18.94
2018-12-07T03:25:10.006Z,18.91
2018-12-07T03:25:50.859Z,18.9
2018-12-07T03:26:31.573Z,18.9
2018-12-07T03:27:12.350Z,18.91
2018-12-07T03:27:53.148Z,18.9
2018-12-07T03:28:33.908Z,18.9
2018-12-07T03:29:14.622Z,18.91
2018-12-07T03:29:55.307Z,18.82
2018-12-07T03:30:36.070Z,18.9
2018-12-07T03:31:16.858Z,18.94
2018-12-07T03:31:57.549Z,18.87
2018-12-07T03:32:38.305Z,18.87
2018-12-07T03:33:19.103Z,18.76
2018-12-07T03:33:59.851Z,18.81
2018-12-07T03:34:40.702Z,18.87
2018-12-07T03:35:21.403Z,18.84
2018-12-07T03:36:02.151Z,18.9
2018-12-07T03:36:42.879Z,18.87
2018-12-07T03:37:23.708Z,18.92
2018-12-07T03:38:04.499Z,18.88
2018-12-07T03:38:45.309Z,18.9
2018-12-07T03:39:26.031Z,18.81
2018-12-07T03:40:06.769Z,18.9
2018-12-07T03:40:47.605Z,18.9
2018-12-07T03:41:28.371Z,18.85
2018-12-07T03:42:09.078Z,18.81
2018-12-07T03:42:49.773Z,18.88
2018-12-07T03:43:30.486Z,18.88
2018-12-07T03:44:11.267Z,18.88
2018-12-07T03:44:51.996Z,18.85
2018-12-07T03:45:32.717Z,18.87
2018-12-07T03:46:13.529Z,18.9
2018-12-07T03:46:54.269Z,18.92
2018-12-07T03:47:35.094Z,18.8
2018-12-07T03:48:15.784Z,18.85
2018-12-07T03:48:56.554Z,18.9
2018-12-07T03:49:37.389Z,18.85
2018-12-07T03:50:18.112Z,18.78
2018-12-07T03:50:58.799Z,18.88
2018-12-07T03:51:39.514Z,18.87
2018-12-07T03:52:20.267Z,18.87
2018-12-07T03:53:01.078Z,18.88
2018-12-07T03:53:41.876Z,18.82
2018-12-07T03:54:22.650Z,18.81
2018-12-07T03:55:03.369Z,18.85
2018-12-07T03:55:44.093Z,18.84
2018-12-07T03:56:24.896Z,18.78
2018-12-07T03:57:05.727Z,18.78
2018-12-07T03:57:46.466Z,18.91
2018-12-07T03:58:27.242Z,18.81
2018-12-07T03:59:08.071Z,18.85
2018-12-07T03:59:48.848Z,18.81
2018-12-07T04:00:29.642Z,18.82
2018-12-07T04:01:10.437Z,18.8
2018-12-07T04:01:51.149Z,18.76
2018-12-07T04:02:31.920Z,18.88
2018-12-07T04:03:12.688Z,18.87
2018-12-07T04:03:53.513Z,18.84
2018-12-07T04:04:34.338Z,18.84
2018-12-07T04:05:15.073Z,18.76
2018-12-07T04:05:55.769Z,18.87
2018-12-07T04:06:36.522Z,18.76
2018-12-07T04:07:17.302Z,18.8
2018-12-07T04:07:58.011Z,18.84
2018-12-07T04:08:38.752Z,18.76
2018-12-07T04:09:19.489Z,18.87
2018-12-07T04:10:00.352Z,18.87
2018-12-07T04:10:41.125Z,18.8
2018-12-07T04:11:21.938Z,18.81
2018-12-07T04:12:02.649Z,18.85
2018-12-07T04:12:43.346Z,18.78
2018-12-07T04:13:24.069Z,18.88
2018-12-07T04:14:04.821Z,18.81
2018-12-07T04:14:45.638Z,18.75
2018-12-07T04:15:26.429Z,18.78
2018-12-07T04:16:07.183Z,18.81
2018-12-07T04:16:47.984Z,18.84
2018-12-07T04:17:28.775Z,18.9
2018-12-07T04:18:09.539Z,18.78
2018-12-07T04:18:50.232Z,18.78
2018-12-07T04:19:30.978Z,18.82
2018-12-07T04:20:11.802Z,18.78
2018-12-07T04:20:52.505Z,18.8
2018-12-07T04:21:33.219Z,18.82
2018-12-07T04:22:13.958Z,18.81
2018-12-07T04:22:54.718Z,18.78
2018-12-07T04:23:35.512Z,18.84
2018-12-07T04:24:16.230Z,18.81
2018-12-07T04:24:57.029Z,18.75
2018-12-07T04:25:37.843Z,18.73
2018-12-07T04:26:18.634Z,18.81
2018-12-07T04:26:59.400Z,18.78
2018-12-07T04:27:40.099Z,18.85
2018-12-07T04:28:20.816Z,18.81
2018-12-07T04:29:01.583Z,18.81
2018-12-07T04:29:42.416Z,18.84
2018-12-07T04:30:23.179Z,18.82
2018-12-07T04:31:04.012Z,18.82
2018-12-07T04:31:44.729Z,18.82
2018-12-07T04:32:25.469Z,18.78
2018-12-07T04:33:06.273Z,18.82
2018-12-07T04:33:46.999Z,18.85
2018-12-07T04:34:27.704Z,18.82
2018-12-07T04:35:08.392Z,18.76
2018-12-07T04:35:49.128Z,18.85
2018-12-07T04:36:29.961Z,18.78
2018-12-07T04:37:10.794Z,18.85
2018-12-07T04:37:51.520Z,18.85
2018-12-07T04:38:32.287Z,18.82
2018-12-07T04:39:12.898Z,18.84
2018-12-07T04:39:53.696Z,18.81
2018-12-07T04:40:34.447Z,18.8
2018-12-07T04:41:15.214Z,18.81
2018-12-07T04:41:55.887Z,18.84
2018-12-07T04:42:36.677Z,18.8
2018-12-07T04:43:17.508Z,18.82
2018-12-07T04:43:58.264Z,18.82
2018-12-07T04:44:38.988Z,18.81
2018-12-07T04:45:19.693Z,18.82
2018-12-07T04:46:00.411Z,18.8
2018-12-07T04:46:41.249Z,18.82
2018-12-07T04:47:22.009Z,18.78
2018-12-07T04:48:02.843Z,18.85
2018-12-07T04:48:43.546Z,18.85
2018-12-07T04:49:24.242Z,18.76
2018-12-07T04:50:05.016Z,18.78
2018-12-07T04:50:45.768Z,18.82
2018-12-07T04:51:26.488Z,18.73
2018-12-07T04:52:07.255Z,18.84
2018-12-07T04:52:47.952Z,18.82
2018-12-07T04:53:28.762Z,18.82
2018-12-07T04:54:09.511Z,18.81
2018-12-07T04:54:50.237Z,18.8
2018-12-07T04:55:31.051Z,18.73
2018-12-07T04:56:11.863Z,18.75
2018-12-07T04:56:52.695Z,18.73
2018-12-07T04:57:33.431Z,18.82
2018-12-07T04:58:14.115Z,18.78
2018-12-07T04:58:54.934Z,18.81
2018-12-07T04:59:35.671Z,18.82
2018-12-07T05:00:16.396Z,18.84
2018-12-07T05:00:57.138Z,18.8
2018-12-07T05:01:37.939Z,18.84
2018-12-07T05:02:18.742Z,18.81
2018-12-07T05:02:59.531Z,18.8
2018-12-07T05:03:40.292Z,18.8
2018-12-07T05:04:21.009Z,18.82
2018-12-07T05:05:01.762Z,18.81
2018-12-07T05:05:42.517Z,18.76
2018-12-07T05:06:23.328Z,18.82
2018-12-07T05:07:04.063Z,18.82
2018-12-07T05:07:44.787Z,18.73
2018-12-07T05:08:25.651Z,18.82
2018-12-07T05:09:06.422Z,18.84
2018-12-07T05:09:47.223Z,18.82
2018-12-07T05:10:27.998Z,18.84
2018-12-07T05:11:08.707Z,18.78
2018-12-07T05:11:49.465Z,18.87
2018-12-07T05:12:30.198Z,18.82
2018-12-07T05:13:10.989Z,18.8
2018-12-07T05:13:51.790Z,18.82
2018-12-07T05:14:32.584Z,18.82
2018-12-07T05:15:13.281Z,18.81
2018-12-07T05:15:54.087Z,18.85
2018-12-07T05:16:34.851Z,18.87
2018-12-07T05:17:15.558Z,18.75
2018-12-07T05:17:56.320Z,18.84
2018-12-07T05:18:37.054Z,18.85
2018-12-07T05:19:17.860Z,18.78
2018-12-07T05:19:58.699Z,18.81
2018-12-07T05:20:39.521Z,18.81
2018-12-07T05:21:20.265Z,18.78
2018-12-07T05:22:00.996Z,18.81
2018-12-07T05:22:41.733Z,18.87
2018-12-07T05:23:22.487Z,18.78
2018-12-07T05:24:03.268Z,18.85
2018-12-07T05:24:44.058Z,18.84
2018-12-07T05:25:24.777Z,18.81
2018-12-07T05:26:05.584Z,18.8
2018-12-07T05:26:46.467Z,18.81
2018-12-07T05:27:27.204Z,18.85
2018-12-07T05:28:07.905Z,18.81
2018-12-07T05:28:48.679Z,18.76
2018-12-07T05:29:29.478Z,18.81
2018-12-07T05:30:10.263Z,18.81
2018-12-07T05:30:51.010Z,18.78
2018-12-07T05:31:31.750Z,18.87
2018-12-07T05:32:12.508Z,18.8
2018-12-07T05:32:53.297Z,18.78
2018-12-07T05:33:34.070Z,18.78
2018-12-07T05:34:14.849Z,18.76
2018-12-07T05:34:55.617Z,18.78
2018-12-07T05:35:36.434Z,18.78
2018-12-07T05:36:17.191Z,18.78
2018-12-07T05:36:57.965Z,18.76
2018-12-07T05:37:38.692Z,18.82
2018-12-07T05:38:19.410Z,18.85
2018-12-07T05:39:00.233Z,18.8
2018-12-07T05:39:41.045Z,18.81
2018-12-07T05:40:21.816Z,18.82
2018-12-07T05:41:02.645Z,18.81
2018-12-07T05:41:43.394Z,18.85
2018-12-07T05:42:24.208Z,18.76
2018-12-07T05:43:04.942Z,18.8
2018-12-07T05:43:45.610Z,18.78
2018-12-07T05:44:26.358Z,18.81
2018-12-07T05:45:07.113Z,18.8
2018-12-07T05:45:47.925Z,18.78
2018-12-07T05:46:28.690Z,18.78
2018-12-07T05:47:09.435Z,18.84
2018-12-07T05:47:50.278Z,18.8
2018-12-07T05:48:31.096Z,18.72
2018-12-07T05:49:11.939Z,18.78
2018-12-07T05:49:52.671Z,18.73
2018-12-07T05:50:33.450Z,18.76
2018-12-07T05:51:14.265Z,18.8
2018-12-07T05:51:54.979Z,18.84
2018-12-07T05:52:35.734Z,18.88
2018-12-07T05:53:16.466Z,18.8
2018-12-07T05:53:57.191Z,18.85
2018-12-07T05:54:38.057Z,18.84
2018-12-07T05:55:18.882Z,18.84
2018-12-07T05:55:59.703Z,18.82
2018-12-07T05:56:40.484Z,18.78
2018-12-07T05:57:21.190Z,18.76
2018-12-07T05:58:02.006Z,18.76
2018-12-07T05:58:42.773Z,18.78
2018-12-07T05:59:23.890Z,18.8
2018-12-07T06:00:04.215Z,18.81
2018-12-07T06:00:45.066Z,18.8
2018-12-07T06:01:25.855Z,18.8
2018-12-07T06:02:06.655Z,18.8
2018-12-07T06:02:47.363Z,18.76
2018-12-07T06:03:28.061Z,18.82
2018-12-07T06:04:08.933Z,18.81
2018-12-07T06:04:49.670Z,18.82
2018-12-07T06:05:30.446Z,18.84
2018-12-07T06:06:11.138Z,18.75
2018-12-07T06:06:51.897Z,18.75
2018-12-07T06:07:32.663Z,18.75
2018-12-07T06:08:13.424Z,18.75
2018-12-07T06:08:54.115Z,18.73
2018-12-07T06:09:34.929Z,18.76
2018-12-07T06:10:15.771Z,18.75
2018-12-07T06:10:56.580Z,18.81
2018-12-07T06:11:37.347Z,18.76
2018-12-07T06:12:18.102Z,18.78
2018-12-07T06:12:58.855Z,18.75
2018-12-07T06:13:39.642Z,18.73
2018-12-07T06:14:20.432Z,18.75
2018-12-07T06:15:01.267Z,18.87
2018-12-07T06:15:42.022Z,18.8
2018-12-07T06:16:22.778Z,18.73
2018-12-07T06:17:03.577Z,18.73
2018-12-07T06:17:44.332Z,18.72
2018-12-07T06:18:25.041Z,18.7
2018-12-07T06:19:05.856Z,18.69
2018-12-07T06:19:46.522Z,18.72
2018-12-07T06:20:27.381Z,18.73
2018-12-07T06:21:08.255Z,18.73
2018-12-07T06:21:49.103Z,18.75
2018-12-07T06:22:29.845Z,18.75
2018-12-07T06:23:10.564Z,18.78
2018-12-07T06:23:51.309Z,18.75
2018-12-07T06:24:32.112Z,18.82
2018-12-07T06:25:12.924Z,18.73
2018-12-07T06:25:53.609Z,18.69
2018-12-07T06:26:34.379Z,18.69
2018-12-07T06:27:15.197Z,18.67
2018-12-07T06:27:56.032Z,18.8
2018-12-07T06:28:36.768Z,18.7
2018-12-07T06:29:17.452Z,18.8
2018-12-07T06:29:58.151Z,18.69
2018-12-07T06:30:38.871Z,18.69
2018-12-07T06:31:19.704Z,18.67
2018-12-07T06:32:00.472Z,18.76
2018-12-07T06:32:41.323Z,18.7
2018-12-07T06:33:22.032Z,18.8
2018-12-07T06:34:02.787Z,18.63
2018-12-07T06:34:43.618Z,18.63
2018-12-07T06:35:24.350Z,18.72
2018-12-07T06:36:05.109Z,18.67
2018-12-07T06:36:47.731Z,18.67
2018-12-07T06:37:28.513Z,18.66
2018-12-07T06:38:09.341Z,18.66
2018-12-07T06:38:50.101Z,18.73
2018-12-07T06:39:30.813Z,18.8
2018-12-07T06:40:11.650Z,18.75
2018-12-07T06:40:52.462Z,18.67
2018-12-07T06:41:33.293Z,18.66
2018-12-07T06:42:14.003Z,18.63
2018-12-07T06:42:54.781Z,18.76
2018-12-07T06:43:35.634Z,18.63
2018-12-07T06:44:16.413Z,18.72
2018-12-07T06:44:57.167Z,18.8
2018-12-07T06:45:37.883Z,18.76
2018-12-07T06:46:18.693Z,18.69
2018-12-07T06:46:59.435Z,18.72
2018-12-07T06:47:40.256Z,18.7
2018-12-07T06:48:21.024Z,18.76
2018-12-07T06:49:01.731Z,18.69
2018-12-07T06:49:42.434Z,18.75
2018-12-07T06:50:23.178Z,18.7
2018-12-07T06:51:03.975Z,18.72
2018-12-07T06:51:44.671Z,18.76
2018-12-07T06:52:25.416Z,18.76
2018-12-07T06:53:06.208Z,18.73
2018-12-07T06:53:47.000Z,18.67
2018-12-07T06:54:27.856Z,18.66
2018-12-07T06:55:08.606Z,18.66
2018-12-07T06:55:49.329Z,18.75
2018-12-07T06:56:30.019Z,18.63
2018-12-07T06:57:10.831Z,18.75
2018-12-07T06:57:51.632Z,18.75
2018-12-07T06:58:32.447Z,18.78
2018-12-07T06:59:15.058Z,18.69
2018-12-07T06:59:55.778Z,18.72
2018-12-07T07:00:36.565Z,18.73
2018-12-07T07:01:17.402Z,18.67
2018-12-07T07:01:58.133Z,18.72
2018-12-07T07:02:38.841Z,18.67
2018-12-07T07:03:19.560Z,18.66
2018-12-07T07:04:00.363Z,18.67
2018-12-07T07:04:41.181Z,18.69
2018-12-07T07:05:21.982Z,18.76
2018-12-07T07:06:02.751Z,18.73
2018-12-07T07:06:43.527Z,18.75
2018-12-07T07:07:24.241Z,18.69
2018-12-07T07:08:04.974Z,18.7
2018-12-07T07:08:45.784Z,18.76
2018-12-07T07:09:26.519Z,18.67
2018-12-07T07:10:07.918Z,18.72
2018-12-07T07:10:48.764Z,18.72
2018-12-07T07:11:29.491Z,18.67
2018-12-07T07:12:10.321Z,18.67
2018-12-07T07:12:51.025Z,18.75
2018-12-07T07:13:31.842Z,18.76
2018-12-07T07:14:12.665Z,18.76
2018-12-07T07:14:53.388Z,18.73
2018-12-07T07:15:34.094Z,18.65
2018-12-07T07:16:14.829Z,18.72
2018-12-07T07:16:55.561Z,18.76
2018-12-07T07:17:36.349Z,18.75
2018-12-07T07:18:17.124Z,18.75
2018-12-07T07:18:57.892Z,18.75
2018-12-07T07:19:38.674Z,18.81
2018-12-07T07:20:19.472Z,18.75
2018-12-07T07:21:00.229Z,18.78
2018-12-07T07:21:40.953Z,18.66
2018-12-07T07:22:21.653Z,18.69
2018-12-07T07:23:02.391Z,18.72
2018-12-07T07:23:43.205Z,18.75
2018-12-07T07:24:23.986Z,18.65
2018-12-07T07:25:04.818Z,18.72
2018-12-07T07:25:45.564Z,18.75
2018-12-07T07:26:26.292Z,18.67
2018-12-07T07:27:07.093Z,18.75
2018-12-07T07:27:47.802Z,18.72
2018-12-07T07:28:32.424Z,18.65
2018-12-07T07:29:13.165Z,18.78
2018-12-07T07:29:53.895Z,18.63
2018-12-07T07:30:34.685Z,18.72
2018-12-07T07:31:15.501Z,18.76
2018-12-07T07:31:56.270Z,18.65
2018-12-07T07:32:36.961Z,18.67
2018-12-07T07:33:17.689Z,18.67
2018-12-07T07:33:58.473Z,18.63
2018-12-07T07:34:39.336Z,18.69
2018-12-07T07:35:20.062Z,18.75
2018-12-07T07:36:00.778Z,18.75
2018-12-07T07:36:41.583Z,18.72
2018-12-07T07:37:22.367Z,18.76
2018-12-07T07:38:03.174Z,18.75
2018-12-07T07:38:43.907Z,18.76
2018-12-07T07:39:24.623Z,18.63
2018-12-07T07:40:05.324Z,18.73
2018-12-07T07:40:46.038Z,18.67
2018-12-07T07:41:26.838Z,18.76
2018-12-07T07:42:07.648Z,18.7
2018-12-07T07:42:48.469Z,18.67
2018-12-07T07:43:29.228Z,18.66
2018-12-07T07:44:09.966Z,18.66
2018-12-07T07:44:50.798Z,18.67
2018-12-07T07:45:31.561Z,18.66
2018-12-07T07:46:12.275Z,18.67
2018-12-07T07:46:52.997Z,18.75
2018-12-07T07:47:33.819Z,18.65
2018-12-07T07:48:14.563Z,18.65
2018-12-07T07:48:55.272Z,18.69
2018-12-07T07:49:37.989Z,18.7
2018-12-07T07:50:18.818Z,18.76
2018-12-07T07:50:59.633Z,18.73
2018-12-07T07:51:40.342Z,18.67
2018-12-07T07:52:21.078Z,18.75
2018-12-07T07:53:01.883Z,18.63
2018-12-07T07:53:42.658Z,18.63
2018-12-07T07:54:23.367Z,18.65
2018-12-07T07:55:04.088Z,18.67
2018-12-07T07:55:44.785Z,18.75
2018-12-07T07:56:25.594Z,18.73
2018-12-07T07:57:06.376Z,18.75
2018-12-07T07:57:47.212Z,18.7
2018-12-07T07:58:27.982Z,18.63
2018-12-07T07:59:08.699Z,18.76
2018-12-07T07:59:49.423Z,18.72
2018-12-07T08:00:30.175Z,18.65
2018-12-07T08:01:10.961Z,18.67
2018-12-07T08:01:51.664Z,18.76
2018-12-07T08:02:32.459Z,18.66
2018-12-07T08:03:13.258Z,18.75
2018-12-07T08:03:54.076Z,18.6
2018-12-07T08:04:34.808Z,18.69
2018-12-07T08:05:17.152Z,18.78
2018-12-07T08:05:57.936Z,18.62
2018-12-07T08:06:38.731Z,18.76
2018-12-07T08:07:19.475Z,18.62
2018-12-07T08:08:00.199Z,18.73
2018-12-07T08:08:41.025Z,18.65
2018-12-07T08:09:21.817Z,18.66
2018-12-07T08:10:02.587Z,18.7
2018-12-07T08:10:43.305Z,18.63
2018-12-07T08:11:24.080Z,18.76
2018-12-07T08:12:04.888Z,18.67
2018-12-07T08:12:45.680Z,18.67
2018-12-07T08:13:26.470Z,18.69
2018-12-07T08:14:07.220Z,18.75
2018-12-07T08:14:47.943Z,18.67
2018-12-07T08:15:28.707Z,18.76
2018-12-07T08:16:09.457Z,18.69
2018-12-07T08:16:50.227Z,18.73
2018-12-07T08:17:31.034Z,18.76
2018-12-07T08:18:11.755Z,18.65
2018-12-07T08:18:52.500Z,18.72
2018-12-07T08:19:33.352Z,18.69
2018-12-07T08:20:14.060Z,18.66
2018-12-07T08:20:54.795Z,18.66
2018-12-07T08:21:35.509Z,18.66
2018-12-07T08:22:16.292Z,18.67
2018-12-07T08:22:57.114Z,18.69
2018-12-07T08:23:37.871Z,18.63
2018-12-07T08:24:18.638Z,18.76
2018-12-07T08:24:59.452Z,18.81
2018-12-07T08:25:40.217Z,18.76
2018-12-07T08:26:21.034Z,18.78
2018-12-07T08:27:01.758Z,18.78
2018-12-07T08:27:42.556Z,18.81
2018-12-07T08:28:23.360Z,18.81
2018-12-07T08:29:04.117Z,18.76
2018-12-07T08:29:44.849Z,18.76
2018-12-07T08:30:25.526Z,18.76
2018-12-07T08:31:06.338Z,18.8
2018-12-07T08:31:47.152Z,18.8
2018-12-07T08:32:29.698Z,18.78
2018-12-07T08:33:10.463Z,18.8
2018-12-07T08:33:52.788Z,18.82
2018-12-07T08:34:33.454Z,18.84
2018-12-07T08:35:14.207Z,18.85
2018-12-07T08:35:55.004Z,18.87
2018-12-07T08:36:35.730Z,18.8
2018-12-07T08:37:16.462Z,18.87
2018-12-07T08:37:57.238Z,18.84
2018-12-07T08:38:37.996Z,18.78
2018-12-07T08:39:18.787Z,18.81
2018-12-07T08:39:59.522Z,18.85
2018-12-07T08:40:40.247Z,18.78
2018-12-07T08:41:20.960Z,18.8
2018-12-07T08:42:06.629Z,18.73
2018-12-07T08:42:42.563Z,18.81
2018-12-07T08:43:23.389Z,18.82
2018-12-07T08:44:04.099Z,18.8
2018-12-07T08:44:44.834Z,18.76
2018-12-07T08:45:25.672Z,18.84
2018-12-07T08:46:06.498Z,18.82
2018-12-07T08:46:47.232Z,18.8
2018-12-07T08:47:30.198Z,18.84
2018-12-07T08:48:12.869Z,18.78
2018-12-07T08:48:53.672Z,18.87